Latest Weather Observations for Norah Head

IDN60901

Issued at 8:31 pm EDT Thursday 21 February 2019 (issued every 10 minutes, with the page automatically refreshed every 10 minutes)

About weather observations | Map of Sydney area stations | Latest observations for Sydney area | Other Formats
Station Details ID: 061366 Name: NORAH HEAD AWS Lat: -33.28 Lon: 151.58 Height: 18.8 m
Data from the previous 72 hours. | See also: Recent months at Norah Head
Date/Time
EDT
Temp
°C
App
Temp
°C
Dew
Point
°C
Rel
Hum
%
Delta-T
°C
Wind Press
QNH
hPa
Press
MSL
hPa
Rain since
9am
mm
Dir  Spd
km/h
Gust
km/h
Spd
kts
Gust
kts
21/08:30pm 22.8 21.6 19.2 80 2.3 SE 24 28 13 15 1017.5 1017.4 0.0
21/08:00pm 22.7 21.7 18.9 79 2.4 ESE 22 30 12 16 1017.2 1017.1 0.0
21/07:30pm 22.9 21.6 19.1 79 2.4 SE 24 32 13 17 1016.7 1016.6 0.0
21/07:00pm 22.7 21.7 18.9 79 2.4 SE 22 28 12 15 1016.2 1016.1 0.0
21/06:30pm 23.0 22.5 19.0 78 2.5 SE 20 24 11 13 1016.0 1015.9 0.0
21/06:00pm 23.1 22.0 18.6 76 2.8 SE 22 28 12 15 1015.7 1015.6 0.0
21/05:30pm 24.3 23.6 19.4 74 3.1 SE 22 28 12 15 1015.4 1015.3 0.0
21/05:00pm 24.5 23.2 19.1 72 3.4 SSE 24 28 13 15 1015.0 1014.9 0.0
21/04:30pm 24.8 23.4 19.6 73 3.3 SSE 26 30 14 16 1015.1 1015.0 0.0
21/04:00pm 24.7 23.2 19.5 73 3.3 SSE 26 30 14 16 1015.1 1015.0 0.0
21/03:30pm 24.8 24.4 20.1 75 3.0 SSE 22 26 12 14 1015.3 1015.2 0.0
21/03:00pm 24.5 22.9 19.1 72 3.4 SSE 26 32 14 17 1015.5 1015.4 0.0
21/02:30pm 24.2 22.3 19.3 74 3.1 SSE 28 33 15 18 1015.7 1015.6 0.0
21/02:00pm 24.7 22.5 19.5 73 3.3 SSE 30 35 16 19 1015.7 1015.6 0.0
21/01:30pm 24.4 22.2 19.5 74 3.1 SE 30 33 16 18 1015.8 1015.7 0.0
21/01:00pm 24.0 22.7 19.9 78 2.6 SSE 26 30 14 16 1015.8 1015.7 0.0
21/12:30pm 24.2 22.5 19.9 77 2.8 SE 28 33 15 18 1015.9 1015.8 0.0
21/12:00pm 24.4 23.6 20.1 77 2.8 SE 24 30 13 16 1015.9 1015.8 0.0
21/11:30am 25.4 24.4 21.3 78 2.7 SSE 28 33 15 18 1015.7 1015.6 0.0
21/11:00am 23.6 21.7 20.1 81 2.3 SSE 30 37 16 20 1015.6 1015.5 0.0
21/10:30am 22.9 20.2 19.3 80 2.3 SE 32 37 17 20 1015.4 1015.3 0.0
21/10:00am 22.5 19.1 19.1 81 2.2 SE 35 41 19 22 1015.0 1014.9 0.0
21/09:30am 22.4 19.9 20.1 87 1.5 SE 33 39 18 21 1014.8 1014.7 0.0
21/09:00am 22.1 20.6 20.9 93 0.8 SE 30 35 16 19 1014.7 1014.6 13.4
21/08:30am 22.0 20.2 21.5 97 0.3 SE 33 39 18 21 1014.1 1014.0 13.4
21/08:00am 21.7 20.0 21.7 100 0.0 SE 33 39 18 21 1013.6 1013.5 13.4
21/07:30am 21.5 19.3 21.5 100 0.0 SSE 35 44 19 24 1013.2 1013.1 12.6
21/07:00am 21.7 19.9 21.5 99 0.1 SSE 33 41 18 22 1012.7 1012.6 10.2
21/06:30am 21.9 21.4 21.4 97 0.3 SE 26 32 14 17 1012.6 1012.5 10.0
21/06:00am 21.8 21.0 21.6 99 0.1 SE 28 35 15 19 1012.2 1012.1 10.0
21/05:30am 21.5 19.3 21.5 100 0.0 SE 35 41 19 22 1011.7 1011.6 10.0
21/05:00am 21.4 18.4 21.4 100 0.0 SE 39 44 21 24 1011.5 1011.4 10.0
21/04:30am 21.2 18.1 21.2 100 0.0 SSE 39 44 21 24 1011.4 1011.3 10.0
21/04:00am 21.4 18.0 21.4 100 0.0 SE 41 48 22 26 1011.3 1011.2 10.0
21/03:30am 21.3 17.9 21.3 100 0.0 SSE 41 48 22 26 1011.1 1011.0 9.8
21/03:00am 21.4 15.9 21.4 100 0.0 SSE 52 65 28 35 1010.7 1010.6 9.6
21/02:52am 21.3 17.3 21.3 100 0.0 SSE 44 63 24 34 1010.7 1010.6 9.4
21/02:30am 21.2 17.2 21.2 100 0.0 SSE 44 54 24 29 1010.7 1010.6 7.6
21/02:14am 21.4 18.4 21.4 100 0.0 SSE 39 57 21 31 1010.8 1010.7 4.2
21/02:00am 21.6 19.5 21.6 100 0.0 SSE 35 48 19 26 1010.9 1010.8 4.0
21/01:45am 21.9 21.3 21.9 100 0.0 SSE 28 52 15 28 1011.2 1011.1 1.8
21/01:30am 21.8 22.2 21.8 100 0.0 SSE 22 28 12 15 1011.6 1011.5 1.4
21/01:00am 21.9 22.4 21.9 100 0.0 SSE 22 24 12 13 1011.6 1011.5 1.4
21/12:30am 21.9 22.4 21.9 100 0.0 SE 22 28 12 15 1011.5 1011.4 1.4
21/12:00am 22.0 21.8 22.0 100 0.0 SE 26 35 14 19 1011.2 1011.1 1.4
 
Date/Time
EDT
Temp
°C
App
Temp
°C
Dew
Point
°C
Rel
Hum
%
Delta-T
°C
Wind Press
QNH
hPa
Press
MSL
hPa
Rain since
9am
mm
Dir  Spd
km/h
Gust
km/h
Spd
kts
Gust
kts
20/11:30pm 22.2 21.3 22.2 100 0.0 SSE 30 35 16 19 1011.2 1011.1 1.2
20/11:00pm 22.3 21.1 22.3 100 0.0 SSE 32 39 17 21 1011.2 1011.1 1.2
20/10:30pm 21.9 19.9 21.9 100 0.0 SSE 35 43 19 23 1011.3 1011.2 1.2
20/10:00pm 22.4 21.3 22.4 100 0.0 SSE 32 37 17 20 1011.0 1010.9 1.2
20/09:30pm 22.3 21.5 22.3 100 0.0 S 30 33 16 18 1010.9 1010.8 1.2
20/09:00pm 22.4 21.1 22.4 100 0.0 S 33 41 18 22 1010.5 1010.4 1.2
20/08:30pm 22.6 23.9 22.6 100 0.0 S 20 28 11 15 1010.2 1010.1 1.2
20/08:00pm 22.3 26.0 22.3 100 0.0 SSW 6 9 3 5 1009.9 1009.8 1.2
20/07:30pm 22.4 25.3 22.4 100 0.0 SW 11 17 6 9 1009.5 1009.4 1.2
20/07:00pm 22.3 24.6 22.1 99 0.1 SW 13 19 7 10 1009.0 1009.0 1.2
20/06:30pm 22.3 24.5 21.8 97 0.3 SW 13 20 7 11 1008.8 1008.8 1.2
20/06:00pm 22.0 23.1 21.2 95 0.5 SW 17 26 9 14 1008.8 1008.8 1.2
20/05:30pm 22.0 22.3 20.8 93 0.8 SW 20 26 11 14 1008.8 1008.8 1.2
20/05:00pm 22.2 22.5 20.8 92 0.9 SSW 20 28 11 15 1008.7 1008.7 1.2
20/04:30pm 22.8 22.9 21.1 90 1.1 SSW 22 32 12 17 1008.8 1008.8 1.2
20/04:00pm 22.7 23.3 21.0 90 1.1 SSW 19 28 10 15 1009.0 1009.0 1.2
20/03:30pm 22.4 22.0 21.0 92 0.9 SSW 24 32 13 17 1009.2 1009.2 1.2
20/03:00pm 22.3 22.3 20.9 92 0.9 SSW 22 32 12 17 1009.5 1009.4 1.2
20/02:30pm 22.1 21.7 20.9 93 0.8 SW 24 33 13 18 1009.7 1009.6 1.2
20/02:00pm 22.0 21.2 20.8 93 0.8 SSW 26 33 14 18 1009.9 1009.8 1.2
20/01:30pm 22.5 23.4 21.5 94 0.7 SSW 19 26 10 14 1009.7 1009.6 1.2
20/01:00pm 21.7 22.9 21.5 99 0.1 SW 17 24 9 13 1010.1 1010.0 1.2
20/12:30pm 21.4 23.0 21.4 100 0.0 SW 15 22 8 12 1010.5 1010.4 1.2
20/12:00pm 21.1 21.7 21.1 100 0.0 SW 19 28 10 15 1010.6 1010.5 1.2
20/11:30am 21.3 22.1 21.3 100 0.0 SW 19 24 10 13 1010.9 1010.8 1.2
20/11:00am 21.2 23.0 21.2 100 0.0 SW 13 22 7 12 1010.9 1010.8 1.2
20/10:30am 21.4 23.3 21.4 100 0.0 SW 13 17 7 9 1010.8 1010.7 1.2
20/10:00am 21.0 23.1 21.0 100 0.0 SW 11 17 6 9 1010.8 1010.7 0.6
20/09:30am 21.0 23.1 21.0 100 0.0 SW 11 17 6 9 1010.8 1010.7 0.2
20/09:00am 20.9 23.0 20.9 100 0.0 WSW 11 17 6 9 1010.8 1010.7 16.2
20/08:30am 20.9 22.6 20.9 100 0.0 WSW 13 20 7 11 1010.6 1010.5 10.6
20/08:00am 20.8 23.2 20.8 100 0.0 WSW 9 17 5 9 1010.5 1010.4 10.4
20/07:30am 20.8 21.7 20.8 100 0.0 SW 17 24 9 13 1010.1 1010.0 9.2
20/07:00am 20.7 22.3 20.7 100 0.0 SW 13 20 7 11 1010.1 1010.0 7.2
20/06:30am 20.7 21.1 20.7 100 0.0 SSW 19 24 10 13 1010.0 1009.9 6.6
20/06:00am 20.7 22.7 20.7 100 0.0 SW 11 20 6 11 1010.0 1009.9 4.8
20/05:30am 20.6 22.5 20.6 100 0.0 WSW 11 17 6 9 1010.0 1009.9 4.6
20/05:00am 20.6 22.1 20.6 100 0.0 WSW 13 20 7 11 1010.0 1009.9 4.0
20/04:30am 20.5 21.6 20.5 100 0.0 SW 15 24 8 13 1010.0 1009.9 3.8
20/04:00am 20.5 21.2 20.5 100 0.0 SW 17 24 9 13 1010.2 1010.1 3.6
20/03:30am 20.5 20.8 20.5 100 0.0 SSW 19 26 10 14 1010.2 1010.1 1.6
20/03:00am 20.5 20.8 20.5 100 0.0 SSW 19 26 10 14 1010.5 1010.4 1.6
20/02:30am 20.7 21.1 20.7 100 0.0 SSW 19 28 10 15 1010.7 1010.6 1.4
20/02:00am 20.9 21.8 20.9 100 0.0 SSW 17 24 9 13 1010.9 1010.8 1.2
20/01:30am 20.9 23.2 20.7 99 0.1 SW 9 15 5 8 1011.3 1011.2 1.0
20/01:00am 21.1 22.3 20.6 97 0.3 SW 15 22 8 12 1011.5 1011.4 1.0
20/12:30am 21.1 21.5 20.6 97 0.3 SSW 19 24 10 13 1012.0 1011.9 1.0
20/12:00am 21.0 22.2 20.7 98 0.2 SW 15 20 8 11 1012.1 1012.0 1.0
 
Date/Time
EDT
Temp
°C
App
Temp
°C
Dew
Point
°C
Rel
Hum
%
Delta-T
°C
Wind Press
QNH
hPa
Press
MSL
hPa
Rain since
9am
mm
Dir  Spd
km/h
Gust
km/h
Spd
kts
Gust
kts
19/11:30pm 20.9 21.2 20.7 99 0.1 SSW 20 28 11 15 1012.1 1012.0 1.0
19/11:00pm 20.8 19.2 20.8 100 0.0 SSW 30 39 16 21 1011.8 1011.7 1.0
19/10:30pm 20.8 18.8 20.8 100 0.0 SSW 32 43 17 23 1011.6 1011.5 1.0
19/10:00pm 20.8 17.9 20.8 100 0.0 SSW 37 46 20 25 1011.4 1011.3 1.0
19/09:30pm 20.9 18.9 20.7 99 0.1 SSW 32 46 17 25 1011.1 1011.0 1.0
19/09:00pm 21.2 19.7 21.0 99 0.1 SSW 30 43 16 23 1010.8 1010.7 1.0
19/08:30pm 21.4 20.0 21.2 99 0.1 SSW 30 41 16 22 1010.1 1010.0 1.0
19/08:00pm 21.7 20.0 21.4 98 0.2 SSW 32 41 17 22 1008.8 1008.8 1.0
19/07:30pm 22.4 21.5 22.2 99 0.1 SSW 30 37 16 20 1008.7 1008.7 1.0
19/07:00pm 22.1 21.2 22.1 100 0.0 SSW 30 35 16 19 1007.8 1007.8 1.0
19/06:30pm 21.8 21.7 21.5 98 0.2 SSW 24 33 13 18 1007.5 1007.5 1.0
19/06:00pm 22.1 20.5 21.6 97 0.3 SSW 32 41 17 22 1006.5 1006.5 1.0
19/05:30pm 22.2 21.0 21.5 96 0.5 SSW 30 39 16 21 1006.5 1006.5 1.0
19/05:00pm 22.1 18.2 21.1 94 0.7 SSW 43 54 23 29 1005.6 1005.6 0.0
19/04:49pm 22.3 20.8 20.9 92 0.9 SSW 30 50 16 27 1005.7 1005.7 0.0
19/04:30pm 22.6 20.5 20.9 90 1.1 SSW 33 41 18 22 1005.6 1005.6 0.0
19/04:00pm 22.8 20.6 20.7 88 1.4 SSW 33 39 18 21 1005.8 1005.8 0.0
19/03:30pm 22.9 20.4 20.8 88 1.4 SSW 35 44 19 24 1005.4 1005.4 0.0
19/03:00pm 22.6 19.7 20.9 90 1.1 SSW 37 46 20 25 1005.7 1005.7 0.0
19/02:30pm 23.8 20.8 20.7 83 2.0 S 37 46 20 25 1005.4 1005.4 0.0
19/02:00pm 23.8 20.4 20.7 83 2.0 S 39 48 21 26 1005.6 1005.6 0.0
19/01:30pm 25.2 24.4 20.9 77 2.8 SSW 26 30 14 16 1005.8 1005.8 0.0
19/01:00pm 26.7 29.1 22.3 77 3.0 S 13 17 7 9 1005.8 1005.8 0.0
19/12:30pm 25.3 28.3 21.2 78 2.7 SSE 7 9 4 5 1005.8 1005.8 0.0
19/12:00pm 27.8 30.5 22.1 71 3.8 ENE 11 13 6 7 1005.9 1005.9 0.0
19/11:30am 24.9 26.3 20.4 76 2.9 ENE 13 17 7 9 1005.9 1005.9 0.0
19/11:00am 25.5 25.8 20.5 74 3.3 NE 19 22 10 12 1006.0 1006.0 0.0
19/10:30am 27.0 29.7 22.8 78 2.8 ENE 13 17 7 9 1006.1 1006.1 0.0
19/10:00am 25.5 27.4 21.4 78 2.7 NE 13 15 7 8 1005.9 1005.9 0.0
19/09:30am 24.2 27.7 21.1 83 2.0 ENE 4 7 2 4 1005.7 1005.7 0.0
19/09:00am 24.6 27.7 22.1 86 1.7 N 9 13 5 7 1005.2 1005.2 0.2
19/08:30am 23.2 27.5 22.0 93 0.8 N 2 4 1 2 1005.5 1005.5 0.2
19/08:00am 22.5 26.2 22.3 99 0.1 N 6 7 3 4 1005.5 1005.5 0.2
19/07:30am 20.9 24.4 20.4 97 0.3 W 2 11 1 6 1005.8 1005.8 0.2
19/07:00am 20.8 23.8 20.1 96 0.4 SW 4 7 2 4 1005.2 1005.2 0.2
19/06:30am 21.1 24.6 20.4 96 0.5 SW 2 6 1 3 1005.2 1005.2 0.2
19/06:00am 21.4 24.1 20.7 96 0.5 ESE 7 11 4 6 1005.3 1005.3 0.2
19/05:30am 21.4 24.3 20.7 96 0.5 ESE 6 7 3 4 1005.2 1005.2 0.2
19/05:00am 21.4 23.4 20.7 96 0.5 SSE 11 15 6 8 1005.2 1005.2 0.2
19/04:30am 21.4 23.4 20.7 96 0.5 SSE 11 17 6 9 1005.5 1005.5 0.2
19/04:00am 21.1 23.1 19.9 93 0.8 SSW 9 13 5 7 1006.3 1006.3 0.2
19/03:30am 21.5 24.1 20.0 91 1.0 W 6 11 3 6 1006.7 1006.7 0.2
19/03:00am 21.7 23.3 20.7 94 0.7 E 13 15 7 8 1005.8 1005.8 0.2
19/02:30am 21.3 23.3 19.9 92 0.9 ENE 9 11 5 6 1006.1 1006.1 0.2
19/02:00am 21.7 23.9 20.5 93 0.8 E 9 15 5 8 1006.1 1006.1 0.2
19/01:30am 21.4 24.2 19.7 90 1.1 S 4 6 2 3 1006.3 1006.3 0.2
19/01:00am 21.7 24.2 20.2 91 1.0 SW 7 20 4 11 1006.8 1006.8 0.2
19/12:30am 21.9 21.4 20.7 93 0.8 NNE 24 28 13 15 1005.7 1005.7 0.2
19/12:00am 22.1 20.8 20.7 92 0.9 NNE 28 32 15 17 1005.8 1005.8 0.2
 
Date/Time
EDT
Temp
°C
App
Temp
°C
Dew
Point
°C
Rel
Hum
%
Delta-T
°C
Wind Press
QNH
hPa
Press
MSL
hPa
Rain since
9am
mm
Dir  Spd
km/h
Gust
km/h
Spd
kts
Gust
kts
18/11:30pm 22.1 21.2 20.7 92 0.9 NNE 26 30 14 16 1005.9 1005.9 0.2
18/11:00pm 22.1 20.9 20.9 93 0.8 NNE 28 30 15 16 1006.1 1006.1 0.2
18/10:30pm 22.2 20.6 20.8 92 0.9 NNE 30 33 16 18 1006.2 1006.2 0.2
18/10:00pm 22.3 21.1 20.8 91 1.0 NNE 28 32 15 17 1006.3 1006.3 0.2
18/09:30pm 22.3 21.1 20.8 91 1.0 NNE 28 32 15 17 1006.4 1006.4 0.2
18/09:00pm 22.4 20.9 20.9 91 1.0 NNE 30 35 16 19 1006.0 1006.0 0.2

Latest Capital City Observations: Canberra | Sydney | Melbourne | Brisbane | Adelaide | Perth | Hobart | Darwin

Other formats

Comma delimited format used in spreadsheet applications
http://www.bom.gov.au/fwo/IDN60901/IDN60901.95770.axf

JavaScript Object Notation format (JSON) in row-major order
http://www.bom.gov.au/fwo/IDN60901/IDN60901.95770.json

Data quality

Most of these data are generated automatically and are frequently updated. Quality checks on data are not normally performed. It is possible for incorrect values to appear. Refer to information at About Latest Weather Observations and please check the disclaimer before using these data.